sensor_id;sensor_type;location;lat;lon;timestamp;temperature;humidity
23591;DHT22;11973;52.098;7.582;2023-10-13T04:17:38;16.80;99.90
23591;DHT22;11973;52.098;7.582;2023-10-13T04:20:11;16.80;99.90
23591;DHT22;11973;52.098;7.582;2023-10-13T04:22:38;16.80;99.90
23591;DHT22;11973;52.098;7.582;2023-10-13T04:25:23;16.80;99.90
23591;DHT22;11973;52.098;7.582;2023-10-13T04:28:17;16.80;99.90
23591;DHT22;11973;52.098;7.582;2023-10-13T04:31:00;16.70;99.90
23591;DHT22;11973;52.098;7.582;2023-10-13T04:33:37;16.70;99.90
23591;DHT22;11973;52.098;7.582;2023-10-13T04:36:17;16.70;99.90
23591;DHT22;11973;52.098;7.582;2023-10-13T04:38:46;16.70;99.90
23591;DHT22;11973;52.098;7.582;2023-10-13T04:41:35;16.70;99.90
23591;DHT22;11973;52.098;7.582;2023-10-13T04:46:54;16.70;99.90
23591;DHT22;11973;52.098;7.582;2023-10-13T04:49:40;16.70;99.90
23591;DHT22;11973;52.098;7.582;2023-10-13T04:52:09;16.70;99.90
23591;DHT22;11973;52.098;7.582;2023-10-13T04:54:45;16.70;99.90
23591;DHT22;11973;52.098;7.582;2023-10-13T04:57:22;16.70;99.90
23591;DHT22;11973;52.098;7.582;2023-10-13T04:59:49;16.70;99.90
23591;DHT22;11973;52.098;7.582;2023-10-13T05:02:34;16.70;99.90
23591;DHT22;11973;52.098;7.582;2023-10-13T05:05:13;16.70;99.90
23591;DHT22;11973;52.098;7.582;2023-10-13T05:07:52;16.70;99.90
23591;DHT22;11973;52.098;7.582;2023-10-13T05:10:37;16.70;99.90
23591;DHT22;11973;52.098;7.582;2023-10-13T05:13:21;16.70;99.90
23591;DHT22;11973;52.098;7.582;2023-10-13T05:16:06;16.70;99.90
23591;DHT22;11973;52.098;7.582;2023-10-13T05:18:50;16.70;99.90
23591;DHT22;11973;52.098;7.582;2023-10-13T05:21:35;16.70;99.90
23591;DHT22;11973;52.098;7.582;2023-10-13T05:24:19;16.70;99.90
23591;DHT22;11973;52.098;7.582;2023-10-13T05:27:04;16.70;99.90
23591;DHT22;11973;52.098;7.582;2023-10-13T05:29:48;16.70;99.90
23591;DHT22;11973;52.098;7.582;2023-10-13T05:32:33;16.70;99.90
23591;DHT22;11973;52.098;7.582;2023-10-13T05:35:20;16.70;99.90
23591;DHT22;11973;52.098;7.582;2023-10-13T05:38:04;16.60;99.90
23591;DHT22;11973;52.098;7.582;2023-10-13T05:43:36;16.60;99.90
23591;DHT22;11973;52.098;7.582;2023-10-13T05:46:20;16.60;99.90
23591;DHT22;11973;52.098;7.582;2023-10-13T05:49:07;16.60;99.90
23591;DHT22;11973;52.098;7.582;2023-10-13T05:51:37;16.60;99.90
23591;DHT22;11973;52.098;7.582;2023-10-13T05:54:13;16.60;99.90
23591;DHT22;11973;52.098;7.582;2023-10-13T05:56:49;16.60;99.90
23591;DHT22;11973;52.098;7.582;2023-10-13T05:59:37;16.60;99.90
23591;DHT22;11973;52.098;7.582;2023-10-13T06:02:23;16.60;99.90
23591;DHT22;11973;52.098;7.582;2023-10-13T06:05:12;16.60;99.90
23591;DHT22;11973;52.098;7.582;2023-10-13T06:07:58;16.70;99.90
23591;DHT22;11973;52.098;7.582;2023-10-13T06:10:43;16.60;99.90
23591;DHT22;11973;52.098;7.582;2023-10-13T06:13:27;16.60;99.90
23591;DHT22;11973;52.098;7.582;2023-10-13T06:16:13;16.70;99.90
23591;DHT22;11973;52.098;7.582;2023-10-13T06:18:58;16.70;99.90
23591;DHT22;11973;52.098;7.582;2023-10-13T06:21:43;16.70;99.90
23591;DHT22;11973;52.098;7.582;2023-10-13T06:24:28;16.70;99.90
23591;DHT22;11973;52.098;7.582;2023-10-13T06:27:12;16.80;99.90
23591;DHT22;11973;52.098;7.582;2023-10-13T06:29:56;16.80;99.90
23591;DHT22;11973;52.098;7.582;2023-10-13T06:32:23;16.90;99.90
23591;DHT22;11973;52.098;7.582;2023-10-13T06:34:55;16.90;99.90
23591;DHT22;11973;52.098;7.582;2023-10-13T06:37:25;16.90;99.90
23591;DHT22;11973;52.098;7.582;2023-10-13T06:39:53;16.90;99.90
23591;DHT22;11973;52.098;7.582;2023-10-13T06:42:28;17.00;99.90
23591;DHT22;11973;52.098;7.582;2023-10-13T06:44:57;17.00;99.90
23591;DHT22;11973;52.098;7.582;2023-10-13T06:47:25;17.00;99.90
23591;DHT22;11973;52.098;7.582;2023-10-13T06:49:53;17.10;99.90
23591;DHT22;11973;52.098;7.582;2023-10-13T06:52:21;17.10;99.90
23591;DHT22;11973;52.098;7.582;2023-10-13T06:54:54;17.10;99.90
23591;DHT22;11973;52.098;7.582;2023-10-13T06:57:21;17.10;99.90
23591;DHT22;11973;52.098;7.582;2023-10-13T06:59:47;17.20;99.90
23591;DHT22;11973;52.098;7.582;2023-10-13T07:02:14;17.20;99.90
23591;DHT22;11973;52.098;7.582;2023-10-13T07:04:49;17.20;99.90
23591;DHT22;11973;52.098;7.582;2023-10-13T07:07:29;17.30;99.90
23591;DHT22;11973;52.098;7.582;2023-10-13T07:09:55;17.30;99.90
23591;DHT22;11973;52.098;7.582;2023-10-13T07:12:21;17.30;99.90
23591;DHT22;11973;52.098;7.582;2023-10-13T07:14:49;17.40;99.90
23591;DHT22;11973;52.098;7.582;2023-10-13T07:17:18;17.40;99.90
23591;DHT22;11973;52.098;7.582;2023-10-13T07:19:54;17.50;99.90
23591;DHT22;11973;52.098;7.582;2023-10-13T07:22:41;17.50;99.90
23591;DHT22;11973;52.098;7.582;2023-10-13T07:25:11;17.60;99.90
23591;DHT22;11973;52.098;7.582;2023-10-13T07:27:49;17.60;99.90
23591;DHT22;11973;52.098;7.582;2023-10-13T07:30:15;17.60;99.90
23591;DHT22;11973;52.098;7.582;2023-10-13T07:32:45;17.70;99.90
23591;DHT22;11973;52.098;7.582;2023-10-13T07:35:16;17.70;99.90
23591;DHT22;11973;52.098;7.582;2023-10-13T07:37:45;17.70;99.90
23591;DHT22;11973;52.098;7.582;2023-10-13T07:40:14;17.80;99.90
23591;DHT22;11973;52.098;7.582;2023-10-13T07:42:52;17.80;99.90
23591;DHT22;11973;52.098;7.582;2023-10-13T07:45:24;17.90;99.90
23591;DHT22;11973;52.098;7.582;2023-10-13T07:47:51;17.90;99.90
23591;DHT22;11973;52.098;7.582;2023-10-13T07:50:17;18.00;99.90
23591;DHT22;11973;52.098;7.582;2023-10-13T07:52:53;18.00;99.90
23591;DHT22;11973;52.098;7.582;2023-10-13T07:55:33;18.10;99.90
23591;DHT22;11973;52.098;7.582;2023-10-13T07:57:59;18.20;99.90
23591;DHT22;11973;52.098;7.582;2023-10-13T08:00:26;18.30;99.90
23591;DHT22;11973;52.098;7.582;2023-10-13T08:03:04;18.30;99.90
23591;DHT22;11973;52.098;7.582;2023-10-13T08:05:55;18.40;99.90
23591;DHT22;11973;52.098;7.582;2023-10-13T08:08:24;18.50;99.90
23591;DHT22;11973;52.098;7.582;2023-10-13T08:11:06;18.50;99.90
23591;DHT22;11973;52.098;7.582;2023-10-13T08:13:54;18.60;99.90
23591;DHT22;11973;52.098;7.582;2023-10-13T08:16:22;18.60;99.90
23591;DHT22;11973;52.098;7.582;2023-10-13T08:18:52;18.60;99.90
23591;DHT22;11973;52.098;7.582;2023-10-13T08:21:19;18.70;99.90
23591;DHT22;11973;52.098;7.582;2023-10-13T08:23:57;18.80;99.90
23591;DHT22;11973;52.098;7.582;2023-10-13T08:26:27;18.90;99.90
23591;DHT22;11973;52.098;7.582;2023-10-13T08:29:03;19.00;99.90
23591;DHT22;11973;52.098;7.582;2023-10-13T08:32:01;19.10;99.90
23591;DHT22;11973;52.098;7.582;2023-10-13T08:34:40;19.20;99.90
23591;DHT22;11973;52.098;7.582;2023-10-13T08:37:09;19.20;99.90
23591;DHT22;11973;52.098;7.582;2023-10-13T08:39:52;19.30;99.90
23591;DHT22;11973;52.098;7.582;2023-10-13T08:42:44;19.30;99.90
23591;DHT22;11973;52.098;7.582;2023-10-13T08:45:11;19.30;99.90
23591;DHT22;11973;52.098;7.582;2023-10-13T08:48:08;19.30;99.90
23591;DHT22;11973;52.098;7.582;2023-10-13T08:53:28;19.40;99.90
23591;DHT22;11973;52.098;7.582;2023-10-13T08:56:11;19.40;99.90
23591;DHT22;11973;52.098;7.582;2023-10-13T08:58:44;19.40;99.90
23591;DHT22;11973;52.098;7.582;2023-10-13T09:03:57;19.50;99.90
23591;DHT22;11973;52.098;7.582;2023-10-13T09:06:57;19.60;99.90
23591;DHT22;11973;52.098;7.582;2023-10-13T09:12:15;19.70;99.90
23591;DHT22;11973;52.098;7.582;2023-10-13T09:14:52;19.70;99.90
23591;DHT22;11973;52.098;7.582;2023-10-13T09:17:31;19.70;99.90
23591;DHT22;11973;52.098;7.582;2023-10-13T09:20:04;19.80;99.90
23591;DHT22;11973;52.098;7.582;2023-10-13T09:22:55;19.80;99.90
23591;DHT22;11973;52.098;7.582;2023-10-13T09:27:59;19.90;99.90
23591;DHT22;11973;52.098;7.582;2023-10-13T09:30:26;20.00;99.90
23591;DHT22;11973;52.098;7.582;2023-10-13T09:33:04;20.10;99.90
23591;DHT22;11973;52.098;7.582;2023-10-13T09:35:31;20.10;99.90
23591;DHT22;11973;52.098;7.582;2023-10-13T09:38:00;20.20;99.90
23591;DHT22;11973;52.098;7.582;2023-10-13T09:40:30;20.30;99.90
23591;DHT22;11973;52.098;7.582;2023-10-13T09:43:01;20.30;99.90
23591;DHT22;11973;52.098;7.582;2023-10-13T09:45:34;20.40;99.90
23591;DHT22;11973;52.098;7.582;2023-10-13T09:48:12;20.50;99.90
23591;DHT22;11973;52.098;7.582;2023-10-13T09:50:48;20.50;99.90
23591;DHT22;11973;52.098;7.582;2023-10-13T09:53:17;20.60;99.90
23591;DHT22;11973;52.098;7.582;2023-10-13T09:55:49;20.70;99.90
23591;DHT22;11973;52.098;7.582;2023-10-13T09:58:17;20.70;99.90
23591;DHT22;11973;52.098;7.582;2023-10-13T10:00:49;20.80;99.90
23591;DHT22;11973;52.098;7.582;2023-10-13T10:03:26;20.90;99.90
23591;DHT22;11973;52.098;7.582;2023-10-13T10:06:21;21.00;99.90
23591;DHT22;11973;52.098;7.582;2023-10-13T10:09:04;21.10;99.90
23591;DHT22;11973;52.098;7.582;2023-10-13T10:14:35;21.20;99.90
23591;DHT22;11973;52.098;7.582;2023-10-13T10:17:08;21.20;99.90
23591;DHT22;11973;52.098;7.582;2023-10-13T10:19:52;21.30;99.90
23591;DHT22;11973;52.098;7.582;2023-10-13T10:22:32;21.30;99.90
23591;DHT22;11973;52.098;7.582;2023-10-13T10:25:06;21.40;99.90
23591;DHT22;11973;52.098;7.582;2023-10-13T10:28:01;21.40;99.90
23591;DHT22;11973;52.098;7.582;2023-10-13T10:30:32;21.50;99.90
23591;DHT22;11973;52.098;7.582;2023-10-13T10:33:04;21.60;99.90
23591;DHT22;11973;52.098;7.582;2023-10-13T10:35:41;21.60;99.90
23591;DHT22;11973;52.098;7.582;2023-10-13T10:38:19;21.70;99.90
23591;DHT22;11973;52.098;7.582;2023-10-13T10:41:04;21.80;99.90
23591;DHT22;11973;52.098;7.582;2023-10-13T10:46:17;21.80;99.90
23591;DHT22;11973;52.098;7.582;2023-10-13T10:48:43;21.90;99.90
23591;DHT22;11973;52.098;7.582;2023-10-13T10:51:13;21.90;99.90
23591;DHT22;11973;52.098;7.582;2023-10-13T10:53:52;22.00;99.90
23591;DHT22;11973;52.098;7.582;2023-10-13T10:56:22;22.10;99.90
23591;DHT22;11973;52.098;7.582;2023-10-13T10:58:55;22.10;99.90
23591;DHT22;11973;52.098;7.582;2023-10-13T11:01:22;22.20;99.90
23591;DHT22;11973;52.098;7.582;2023-10-13T11:03:59;22.20;99.90
23591;DHT22;11973;52.098;7.582;2023-10-13T11:06:36;22.20;99.90
23591;DHT22;11973;52.098;7.582;2023-10-13T11:09:11;22.30;99.90
23591;DHT22;11973;52.098;7.582;2023-10-13T11:11:53;22.30;99.90
23591;DHT22;11973;52.098;7.582;2023-10-13T11:14:23;22.30;99.90
23591;DHT22;11973;52.098;7.582;2023-10-13T11:16:54;22.30;99.90
23591;DHT22;11973;52.098;7.582;2023-10-13T11:19:21;22.40;99.90
23591;DHT22;11973;52.098;7.582;2023-10-13T11:21:54;22.40;99.90
23591;DHT22;11973;52.098;7.582;2023-10-13T11:24:21;22.40;99.90
23591;DHT22;11973;52.098;7.582;2023-10-13T11:26:48;22.40;99.90
23591;DHT22;11973;52.098;7.582;2023-10-13T11:29:19;22.40;99.90
23591;DHT22;11973;52.098;7.582;2023-10-13T11:31:48;22.40;99.90
23591;DHT22;11973;52.098;7.582;2023-10-13T11:34:25;22.40;99.90
23591;DHT22;11973;52.098;7.582;2023-10-13T11:36:51;22.40;99.90
23591;DHT22;11973;52.098;7.582;2023-10-13T11:39:16;22.40;99.90
23591;DHT22;11973;52.098;7.582;2023-10-13T11:41:47;22.50;99.90
23591;DHT22;11973;52.098;7.582;2023-10-13T11:44:20;22.50;99.90
23591;DHT22;11973;52.098;7.582;2023-10-13T11:46:46;22.50;99.90
23591;DHT22;11973;52.098;7.582;2023-10-13T11:49:12;22.50;99.90
23591;DHT22;11973;52.098;7.582;2023-10-13T11:51:50;22.50;99.90
23591;DHT22;11973;52.098;7.582;2023-10-13T11:54:20;22.60;99.90
23591;DHT22;11973;52.098;7.582;2023-10-13T11:56:48;22.60;99.90
23591;DHT22;11973;52.098;7.582;2023-10-13T11:59:14;22.60;99.90
23591;DHT22;11973;52.098;7.582;2023-10-13T12:01:51;22.60;99.90
23591;DHT22;11973;52.098;7.582;2023-10-13T12:04:36;22.70;99.90
23591;DHT22;11973;52.098;7.582;2023-10-13T12:07:15;22.70;99.90
23591;DHT22;11973;52.098;7.582;2023-10-13T12:09:47;22.70;99.90
23591;DHT22;11973;52.098;7.582;2023-10-13T12:12:22;22.70;99.90
23591;DHT22;11973;52.098;7.582;2023-10-13T12:14:48;22.80;99.90
23591;DHT22;11973;52.098;7.582;2023-10-13T12:17:28;22.80;99.90
23591;DHT22;11973;52.098;7.582;2023-10-13T12:20:00;22.80;99.90
23591;DHT22;11973;52.098;7.582;2023-10-13T12:22:26;22.80;99.90
23591;DHT22;11973;52.098;7.582;2023-10-13T12:25:08;22.90;99.90
23591;DHT22;11973;52.098;7.582;2023-10-13T12:28:05;22.90;99.90
23591;DHT22;11973;52.098;7.582;2023-10-13T12:30:49;22.90;99.90
23591;DHT22;11973;52.098;7.582;2023-10-13T12:33:21;22.90;99.90
23591;DHT22;11973;52.098;7.582;2023-10-13T12:36:00;23.00;99.90
23591;DHT22;11973;52.098;7.582;2023-10-13T12:38:33;23.10;99.90
23591;DHT22;11973;52.098;7.582;2023-10-13T12:41:06;23.20;99.90
23591;DHT22;11973;52.098;7.582;2023-10-13T12:43:50;23.40;99.90
23591;DHT22;11973;52.098;7.582;2023-10-13T12:46:34;23.50;99.90
23591;DHT22;11973;52.098;7.582;2023-10-13T12:49:18;23.70;99.90
23591;DHT22;11973;52.098;7.582;2023-10-13T12:52:08;23.80;99.90
23591;DHT22;11973;52.098;7.582;2023-10-13T12:54:47;23.90;99.90
23591;DHT22;11973;52.098;7.582;2023-10-13T12:57:28;24.00;99.90
23591;DHT22;11973;52.098;7.582;2023-10-13T12:59:54;24.20;99.90
23591;DHT22;11973;52.098;7.582;2023-10-13T13:02:24;24.30;99.90
23591;DHT22;11973;52.098;7.582;2023-10-13T13:04:53;24.50;99.90
23591;DHT22;11973;52.098;7.582;2023-10-13T13:07:40;24.60;99.90
23591;DHT22;11973;52.098;7.582;2023-10-13T13:10:14;24.70;99.90
23591;DHT22;11973;52.098;7.582;2023-10-13T13:12:41;24.90;99.90
23591;DHT22;11973;52.098;7.582;2023-10-13T13:15:07;24.90;99.90
23591;DHT22;11973;52.098;7.582;2023-10-13T13:17:38;24.90;99.90
23591;DHT22;11973;52.098;7.582;2023-10-13T13:20:08;24.90;99.90
23591;DHT22;11973;52.098;7.582;2023-10-13T13:22:39;24.90;99.90
23591;DHT22;11973;52.098;7.582;2023-10-13T13:25:05;25.00;99.90
23591;DHT22;11973;52.098;7.582;2023-10-13T13:27:36;25.00;99.90
23591;DHT22;11973;52.098;7.582;2023-10-13T13:30:03;25.10;99.90
23591;DHT22;11973;52.098;7.582;2023-10-13T13:32:38;25.20;99.90
23591;DHT22;11973;52.098;7.582;2023-10-13T13:35:04;25.20;99.90
23591;DHT22;11973;52.098;7.582;2023-10-13T13:37:31;25.20;99.90
23591;DHT22;11973;52.098;7.582;2023-10-13T13:39:57;25.20;99.90
23591;DHT22;11973;52.098;7.582;2023-10-13T13:42:43;25.30;99.90
23591;DHT22;11973;52.098;7.582;2023-10-13T13:45:16;25.30;99.90
23591;DHT22;11973;52.098;7.582;2023-10-13T13:48:03;25.20;99.90
23591;DHT22;11973;52.098;7.582;2023-10-13T13:50:33;25.20;99.90
23591;DHT22;11973;52.098;7.582;2023-10-13T13:53:06;25.10;99.90
23591;DHT22;11973;52.098;7.582;2023-10-13T13:55:36;25.00;99.90
23591;DHT22;11973;52.098;7.582;2023-10-13T13:58:05;24.90;99.90
23591;DHT22;11973;52.098;7.582;2023-10-13T14:00:34;24.80;99.90
23591;DHT22;11973;52.098;7.582;2023-10-13T14:03:07;24.70;99.90
23591;DHT22;11973;52.098;7.582;2023-10-13T14:05:49;24.60;99.90
23591;DHT22;11973;52.098;7.582;2023-10-13T14:08:15;24.50;99.90
23591;DHT22;11973;52.098;7.582;2023-10-13T14:10:42;24.40;99.90
23591;DHT22;11973;52.098;7.582;2023-10-13T14:13:26;24.40;99.90
23591;DHT22;11973;52.098;7.582;2023-10-13T14:16:10;24.30;99.90
23591;DHT22;11973;52.098;7.582;2023-10-13T14:18:45;24.20;99.90
23591;DHT22;11973;52.098;7.582;2023-10-13T14:21:12;24.20;99.90
23591;DHT22;11973;52.098;7.582;2023-10-13T14:23:48;24.10;99.90
23591;DHT22;11973;52.098;7.582;2023-10-13T14:26:15;24.10;99.90
23591;DHT22;11973;52.098;7.582;2023-10-13T14:28:49;24.10;99.90
23591;DHT22;11973;52.098;7.582;2023-10-13T14:31:31;24.10;99.90
23591;DHT22;11973;52.098;7.582;2023-10-13T14:33:57;24.00;99.90
23591;DHT22;11973;52.098;7.582;2023-10-13T14:36:23;24.00;99.90
23591;DHT22;11973;52.098;7.582;2023-10-13T14:38:57;24.00;99.90
23591;DHT22;11973;52.098;7.582;2023-10-13T14:41:22;23.90;99.90
23591;DHT22;11973;52.098;7.582;2023-10-13T14:43:48;23.90;99.90
23591;DHT22;11973;52.098;7.582;2023-10-13T14:46:19;23.80;99.90
23591;DHT22;11973;52.098;7.582;2023-10-13T14:48:52;23.70;99.90
23591;DHT22;11973;52.098;7.582;2023-10-13T14:51:18;23.60;99.90
23591;DHT22;11973;52.098;7.582;2023-10-13T14:53:46;23.60;99.90
23591;DHT22;11973;52.098;7.582;2023-10-13T14:56:16;23.50;99.90
23591;DHT22;11973;52.098;7.582;2023-10-13T14:58:43;23.40;99.90
23591;DHT22;11973;52.098;7.582;2023-10-13T15:01:13;23.40;99.90
23591;DHT22;11973;52.098;7.582;2023-10-13T15:03:48;23.30;99.90
23591;DHT22;11973;52.098;7.582;2023-10-13T15:06:22;23.20;99.90
23591;DHT22;11973;52.098;7.582;2023-10-13T15:08:55;23.10;99.90
23591;DHT22;11973;52.098;7.582;2023-10-13T15:11:22;23.10;99.90
23591;DHT22;11973;52.098;7.582;2023-10-13T15:13:54;23.00;99.90
23591;DHT22;11973;52.098;7.582;2023-10-13T15:16:23;22.90;99.90
23591;DHT22;11973;52.098;7.582;2023-10-13T15:18:51;22.90;99.90
23591;DHT22;11973;52.098;7.582;2023-10-13T15:21:24;22.80;99.90
23591;DHT22;11973;52.098;7.582;2023-10-13T15:24:06;22.80;99.90
23591;DHT22;11973;52.098;7.582;2023-10-13T15:26:45;22.70;99.90
23591;DHT22;11973;52.098;7.582;2023-10-13T15:29:18;22.70;99.90
23591;DHT22;11973;52.098;7.582;2023-10-13T15:31:51;22.60;99.90
23591;DHT22;11973;52.098;7.582;2023-10-13T15:34:27;22.50;99.90
23591;DHT22;11973;52.098;7.582;2023-10-13T15:36:55;22.50;99.90
23591;DHT22;11973;52.098;7.582;2023-10-13T15:39:22;22.40;99.90
23591;DHT22;11973;52.098;7.582;2023-10-13T15:41:57;22.40;99.90
23591;DHT22;11973;52.098;7.582;2023-10-13T15:44:28;22.30;99.90
23591;DHT22;11973;52.098;7.582;2023-10-13T15:46:58;22.30;99.90
23591;DHT22;11973;52.098;7.582;2023-10-13T15:49:24;22.30;99.90
23591;DHT22;11973;52.098;7.582;2023-10-13T15:51:49;22.20;99.90
23591;DHT22;11973;52.098;7.582;2023-10-13T15:54:18;22.20;99.90
23591;DHT22;11973;52.098;7.582;2023-10-13T15:56:47;22.10;99.90
23591;DHT22;11973;52.098;7.582;2023-10-13T15:59:14;22.10;99.90
23591;DHT22;11973;52.098;7.582;2023-10-13T16:01:40;22.10;99.90
23591;DHT22;11973;52.098;7.582;2023-10-13T16:04:07;22.10;99.90
23591;DHT22;11973;52.098;7.582;2023-10-13T16:06:38;22.10;99.90
23591;DHT22;11973;52.098;7.582;2023-10-13T16:09:03;22.00;99.90
23591;DHT22;11973;52.098;7.582;2023-10-13T16:11:29;22.00;99.90
23591;DHT22;11973;52.098;7.582;2023-10-13T16:13:55;22.00;99.90
23591;DHT22;11973;52.098;7.582;2023-10-13T16:16:22;22.00;99.90
23591;DHT22;11973;52.098;7.582;2023-10-13T16:18:49;22.00;99.90
23591;DHT22;11973;52.098;7.582;2023-10-13T16:21:15;22.00;99.90
23591;DHT22;11973;52.098;7.582;2023-10-13T16:23:42;22.00;99.90
23591;DHT22;11973;52.098;7.582;2023-10-13T16:26:11;22.00;99.90
23591;DHT22;11973;52.098;7.582;2023-10-13T16:28:37;22.00;99.90
23591;DHT22;11973;52.098;7.582;2023-10-13T16:31:08;22.00;99.90
23591;DHT22;11973;52.098;7.582;2023-10-13T16:33:37;21.90;99.90
23591;DHT22;11973;52.098;7.582;2023-10-13T16:36:06;21.90;99.90
23591;DHT22;11973;52.098;7.582;2023-10-13T16:38:37;21.90;99.90
23591;DHT22;11973;52.098;7.582;2023-10-13T16:41:04;21.90;99.90
23591;DHT22;11973;52.098;7.582;2023-10-13T16:43:32;21.90;99.90
23591;DHT22;11973;52.098;7.582;2023-10-13T16:46:02;21.80;99.90
23591;DHT22;11973;52.098;7.582;2023-10-13T16:48:34;21.80;99.90
23591;DHT22;11973;52.098;7.582;2023-10-13T16:51:00;21.80;99.90
23591;DHT22;11973;52.098;7.582;2023-10-13T16:53:26;21.70;99.90
23591;DHT22;11973;52.098;7.582;2023-10-13T16:55:53;21.70;99.90
23591;DHT22;11973;52.098;7.582;2023-10-13T16:58:19;21.60;99.90
23591;DHT22;11973;52.098;7.582;2023-10-13T17:00:45;21.50;99.90
23591;DHT22;11973;52.098;7.582;2023-10-13T17:03:17;21.40;99.90
23591;DHT22;11973;52.098;7.582;2023-10-13T17:05:50;21.40;99.90
23591;DHT22;11973;52.098;7.582;2023-10-13T17:08:16;21.30;99.90
23591;DHT22;11973;52.098;7.582;2023-10-13T17:10:42;21.30;99.90
23591;DHT22;11973;52.098;7.582;2023-10-13T17:13:08;21.20;99.90
23591;DHT22;11973;52.098;7.582;2023-10-13T17:15:35;21.20;99.90
23591;DHT22;11973;52.098;7.582;2023-10-13T17:18:05;21.10;99.90
23591;DHT22;11973;52.098;7.582;2023-10-13T17:20:35;21.10;99.90
23591;DHT22;11973;52.098;7.582;2023-10-13T17:23:01;21.00;99.90
23591;DHT22;11973;52.098;7.582;2023-10-13T17:25:27;21.00;99.90
23591;DHT22;11973;52.098;7.582;2023-10-13T17:27:53;20.90;99.90
23591;DHT22;11973;52.098;7.582;2023-10-13T17:30:19;20.80;99.90
23591;DHT22;11973;52.098;7.582;2023-10-13T17:32:45;20.70;99.90
23591;DHT22;11973;52.098;7.582;2023-10-13T17:35:10;20.60;99.90
23591;DHT22;11973;52.098;7.582;2023-10-13T17:37:39;20.60;99.90
23591;DHT22;11973;52.098;7.582;2023-10-13T17:40:09;20.50;99.90
23591;DHT22;11973;52.098;7.582;2023-10-13T17:42:47;20.50;99.90
23591;DHT22;11973;52.098;7.582;2023-10-13T17:45:17;20.40;99.90
23591;DHT22;11973;52.098;7.582;2023-10-13T17:47:43;20.40;99.90
23591;DHT22;11973;52.098;7.582;2023-10-13T17:50:10;20.40;99.90
23591;DHT22;11973;52.098;7.582;2023-10-13T17:52:39;20.30;99.90
23591;DHT22;11973;52.098;7.582;2023-10-13T17:55:08;20.30;99.90
23591;DHT22;11973;52.098;7.582;2023-10-13T17:57:36;20.40;99.90
23591;DHT22;11973;52.098;7.582;2023-10-13T18:00:03;20.30;99.90
23591;DHT22;11973;52.098;7.582;2023-10-13T18:02:39;20.40;99.90
23591;DHT22;11973;52.098;7.582;2023-10-13T18:05:13;20.40;99.90
23591;DHT22;11973;52.098;7.582;2023-10-13T18:07:41;20.40;99.90
23591;DHT22;11973;52.098;7.582;2023-10-13T18:10:11;20.40;99.90
23591;DHT22;11973;52.098;7.582;2023-10-13T18:12:42;20.40;99.90
23591;DHT22;11973;52.098;7.582;2023-10-13T18:15:09;20.40;99.90
23591;DHT22;11973;52.098;7.582;2023-10-13T18:17:38;20.40;99.90
23591;DHT22;11973;52.098;7.582;2023-10-13T18:20:05;20.40;99.90
23591;DHT22;11973;52.098;7.582;2023-10-13T18:22:39;20.30;99.90
23591;DHT22;11973;52.098;7.582;2023-10-13T18:25:06;20.30;99.90
23591;DHT22;11973;52.098;7.582;2023-10-13T18:27:41;20.20;99.90
23591;DHT22;11973;52.098;7.582;2023-10-13T18:30:10;20.10;99.90
23591;DHT22;11973;52.098;7.582;2023-10-13T18:32:41;20.00;99.90
23591;DHT22;11973;52.098;7.582;2023-10-13T18:35:08;20.00;99.90
23591;DHT22;11973;52.098;7.582;2023-10-13T18:37:40;20.00;99.90
23591;DHT22;11973;52.098;7.582;2023-10-13T18:40:16;19.90;99.90
23591;DHT22;11973;52.098;7.582;2023-10-13T18:42:44;19.90;99.90
23591;DHT22;11973;52.098;7.582;2023-10-13T18:45:20;19.80;99.90
23591;DHT22;11973;52.098;7.582;2023-10-13T18:47:48;19.80;99.90
23591;DHT22;11973;52.098;7.582;2023-10-13T18:50:19;19.80;99.90
23591;DHT22;11973;52.098;7.582;2023-10-13T18:52:46;19.70;99.90
23591;DHT22;11973;52.098;7.582;2023-10-13T18:55:11;19.70;99.90
23591;DHT22;11973;52.098;7.582;2023-10-13T18:57:40;19.70;99.90
23591;DHT22;11973;52.098;7.582;2023-10-13T19:00:10;19.60;99.90
23591;DHT22;11973;52.098;7.582;2023-10-13T19:02:46;19.60;99.90
23591;DHT22;11973;52.098;7.582;2023-10-13T19:05:12;19.50;99.90
23591;DHT22;11973;52.098;7.582;2023-10-13T19:07:38;19.50;99.90
23591;DHT22;11973;52.098;7.582;2023-10-13T19:10:04;19.50;99.90
23591;DHT22;11973;52.098;7.582;2023-10-13T19:12:43;19.40;99.90
23591;DHT22;11973;52.098;7.582;2023-10-13T19:15:10;19.40;99.90
23591;DHT22;11973;52.098;7.582;2023-10-13T19:17:40;19.30;99.90
23591;DHT22;11973;52.098;7.582;2023-10-13T19:20:07;19.30;99.90
23591;DHT22;11973;52.098;7.582;2023-10-13T19:22:33;19.30;99.90
23591;DHT22;11973;52.098;7.582;2023-10-13T19:24:59;19.30;99.90
23591;DHT22;11973;52.098;7.582;2023-10-13T19:27:25;19.20;99.90
23591;DHT22;11973;52.098;7.582;2023-10-13T19:29:53;19.20;99.90
23591;DHT22;11973;52.098;7.582;2023-10-13T19:32:20;19.10;99.90
23591;DHT22;11973;52.098;7.582;2023-10-13T19:34:45;19.10;99.90
23591;DHT22;11973;52.098;7.582;2023-10-13T19:37:11;19.10;99.90
23591;DHT22;11973;52.098;7.582;2023-10-13T19:39:38;19.00;99.90
23591;DHT22;11973;52.098;7.582;2023-10-13T19:42:07;19.00;99.90
23591;DHT22;11973;52.098;7.582;2023-10-13T19:44:33;18.90;99.90
23591;DHT22;11973;52.098;7.582;2023-10-13T19:46:59;18.90;99.90
23591;DHT22;11973;52.098;7.582;2023-10-13T19:49:28;18.80;99.90
23591;DHT22;11973;52.098;7.582;2023-10-13T19:51:54;18.80;99.90
23591;DHT22;11973;52.098;7.582;2023-10-13T19:54:23;18.70;99.90
23591;DHT22;11973;52.098;7.582;2023-10-13T19:56:49;18.70;99.90
23591;DHT22;11973;52.098;7.582;2023-10-13T19:59:18;18.60;99.90
23591;DHT22;11973;52.098;7.582;2023-10-13T20:01:44;18.60;99.90
23591;DHT22;11973;52.098;7.582;2023-10-13T20:04:11;18.50;99.90
23591;DHT22;11973;52.098;7.582;2023-10-13T20:06:39;18.50;99.90
23591;DHT22;11973;52.098;7.582;2023-10-13T20:09:06;18.50;99.90
23591;DHT22;11973;52.098;7.582;2023-10-13T20:11:38;18.50;99.90
23591;DHT22;11973;52.098;7.582;2023-10-13T20:14:04;18.40;99.90
23591;DHT22;11973;52.098;7.582;2023-10-13T20:16:30;18.40;99.90
23591;DHT22;11973;52.098;7.582;2023-10-13T20:18:57;18.40;99.90
23591;DHT22;11973;52.098;7.582;2023-10-13T20:21:27;18.40;99.90
23591;DHT22;11973;52.098;7.582;2023-10-13T20:23:55;18.30;99.90
23591;DHT22;11973;52.098;7.582;2023-10-13T20:26:25;18.40;99.90
23591;DHT22;11973;52.098;7.582;2023-10-13T20:28:56;18.30;99.90
23591;DHT22;11973;52.098;7.582;2023-10-13T20:31:22;18.30;99.90
23591;DHT22;11973;52.098;7.582;2023-10-13T20:33:48;18.30;99.90
23591;DHT22;11973;52.098;7.582;2023-10-13T20:36:14;18.30;99.90
23591;DHT22;11973;52.098;7.582;2023-10-13T20:38:48;18.30;99.90
23591;DHT22;11973;52.098;7.582;2023-10-13T20:41:17;18.30;99.90
23591;DHT22;11973;52.098;7.582;2023-10-13T20:43:51;18.30;99.90